Sunday, October 22, 2017, 8:35 PM EDT
Back to Local

KSFZ, Pawtucket, North Central State Airport

Location: Smithfield, RI, United States Lat: 41.917
Local Time: 8:35 PM EDT ( 0:35 GMT) Lon: -71.5
Time Zone: US/Eastern Elev: 439 ft

Show me the last for .
Show Decoded

2017-10-22 19:56 METAR KSFZ 222356Z AUTO 12004KT 10SM CLR 14/11 A3039 RMK AO2 SLP238 T01440106
                 10267 20133 52006 =
2017-10-22 18:56 METAR KSFZ 222256Z AUTO 00000KT 10SM CLR 15/11 A3039 RMK AO2 SLP238 T01500111 =
2017-10-22 17:56 METAR KSFZ 222156Z AUTO 00000KT 10SM CLR 18/11 A3038 RMK AO2 SLP232 T01830111 =
2017-10-22 16:56 METAR KSFZ 222056Z AUTO 14003KT 10SM CLR 22/07 A3038 RMK AO2 SLP231 T02170072
                 53001 =
2017-10-22 15:56 METAR KSFZ 221956Z AUTO 15004KT 10SM CLR 23/07 A3037 RMK AO2 SLP230 T02330072 =
2017-10-22 14:56 METAR KSFZ 221856Z AUTO 12006KT 10SM CLR 25/09 A3037 RMK AO2 SLP229 T02500089 =
2017-10-22 13:56 METAR KSFZ 221756Z AUTO 12003KT 10SM CLR 26/07 A3037 RMK AO2 SLP230 T02610072
                 10261 20100 58012 =
2017-10-22 12:56 METAR KSFZ 221656Z AUTO 00000KT 10SM CLR 26/07 A3039 RMK AO2 SLP234 T02560067 =
2017-10-22 11:56 METAR KSFZ 221556Z AUTO VRB03KT 10SM CLR 24/09 A3040 RMK AO2 SLP239 T02390094 =
2017-10-22 10:56 METAR KSFZ 221456Z AUTO 14003KT 10SM CLR 23/09 A3041 RMK AO2 SLP243 T02280089
                 50004 =
2017-10-22 09:56 METAR KSFZ 221356Z AUTO 00000KT 10SM CLR 19/09 A3042 RMK AO2 SLP248 T01940089 =
2017-10-22 08:56 METAR KSFZ 221256Z AUTO 00000KT 10SM CLR 14/09 A3042 RMK AO2 SLP245 T01440094 =
2017-10-22 07:56 METAR KSFZ 221156Z AUTO 27003KT 10SM CLR 09/08 A3040 RMK AO2 SLP240 T00940078
                 10106 20078 53016 =
2017-10-22 06:56 METAR KSFZ 221056Z AUTO 00000KT 10SM CLR 08/07 A3038 RMK AO2 SLP234 T00830072 =
2017-10-22 05:56 METAR KSFZ 220956Z AUTO 00000KT 10SM CLR 11/07 A3036 RMK AO2 SLP228 T01060072 =
2017-10-22 04:56 METAR KSFZ 220856Z AUTO 00000KT 10SM CLR 11/08 A3035 RMK AO2 SLP223 T01060078
                 53002 =
2017-10-22 03:56 METAR KSFZ 220756Z AUTO 00000KT 10SM CLR 11/08 A3034 RMK AO2 SLP221 T01060078 =
2017-10-22 02:56 METAR KSFZ 220656Z AUTO 00000KT 10SM CLR 11/08 A3034 RMK AO2 SLP219 T01060078 =
2017-10-22 01:56 METAR KSFZ 220556Z AUTO 00000KT 10SM CLR 10/08 A3034 RMK AO2 SLP221 T01000078
                 10156 20100 53000 =
2017-10-22 00:56 METAR KSFZ 220456Z AUTO 00000KT 10SM CLR 11/08 A3034 RMK AO2 SLP219 T01060083
                 402440067 =
2017-10-21 23:56 METAR KSFZ 220356Z AUTO 00000KT 10SM CLR 11/08 A3034 RMK AO2 SLP221 T01060083 =
2017-10-21 22:56 METAR KSFZ 220256Z AUTO 00000KT 10SM CLR 12/08 A3034 RMK AO2 SLP221 T01170083
                 51007 =
2017-10-21 21:56 METAR KSFZ 220156Z AUTO 23003KT 10SM CLR 12/09 A3034 RMK AO2 SLP220 T01220089 =
2017-10-21 20:56 METAR KSFZ 220056Z AUTO 25003KT 10SM CLR 14/08 A3033 RMK AO2 SLP217 T01390083 =

Support USWX by starting your Amazon purchase here.